F/V Santimax — FJWM — position and weather

sailwx.info

Track history (hours):
 
Tides and Currents Weather Stations Pressure Air Temp Water Temp Dewpoint Dewpoint Depression Visibility Wind Speed Wind Dir Waves Ship Positions

F/V Santimax

Last reported at 2018-Feb-26 03:30 UTC. Time now 2018-Feb-26 03:48 UTC.
Position N 47°40' W 003°27'.

Length 15 m.

Type: Fishing. MMSI: 228122900.

Date/timePositionNaut miles runAvg speedWind from/ knotsBaromVisibWave heightAir tempDewpointWater temp
2018-Feb-26 03:30N 47°40' W 003°27'4 8.8
2018-Feb-26 03:00N 47°43' W 003°22'0 0.7
2018-Feb-26 02:29N 47°44' W 003°22'3 6.6
2018-Feb-26 01:58N 47°41' W 003°25'4 8.0
2018-Feb-26 01:30N 47°40' W 003°30'4 8.0
2018-Feb-26 00:59N 47°37' W 003°35'2 4.8
2018-Feb-26 00:30N 47°35' W 003°36'2 3.2
2018-Feb-26 00:00N 47°36' W 003°38'8 0.4
2018-Feb-25 03:49N 47°40' W 003°27'3 9.5
2018-Feb-25 03:30N 47°42' W 003°23'2 4.6
2018-Feb-25 02:59N 47°44' W 003°22'0 0.0
2018-Feb-25 02:29N 47°44' W 003°22'0 0.0
2018-Feb-25 01:59N 47°44' W 003°22'0 0.0
2018-Feb-25 01:29N 47°44' W 003°22'0 0.0
2018-Feb-25 00:59N 47°44' W 003°22'0 0.0
2018-Feb-25 00:29N 47°44' W 003°22'0 0.0
2018-Feb-24 23:59N 47°44' W 003°22'0 0.0
2018-Feb-24 23:29N 47°44' W 003°22'0 0.0
2018-Feb-24 22:59N 47°44' W 003°22'0 0.0
2018-Feb-24 22:29N 47°44' W 003°22'0 0.0
2018-Feb-24 21:59N 47°44' W 003°22'0 0.0
2018-Feb-24 21:29N 47°44' W 003°22'0 0.0
2018-Feb-24 20:59N 47°44' W 003°22'0 0.0
2018-Feb-24 20:29N 47°44' W 003°22'0 0.0
2018-Feb-24 19:59N 47°44' W 003°22'0 0.0
2018-Feb-24 19:29N 47°44' W 003°22'0 0.0
2018-Feb-24 18:59N 47°44' W 003°22'0 0.0
2018-Feb-24 18:29N 47°44' W 003°22'0 0.0
2018-Feb-24 17:56N 47°44' W 003°22'0 0.0
2018-Feb-24 17:29N 47°44' W 003°22'0 0.0
2018-Feb-24 16:59N 47°44' W 003°22'0 0.0
2018-Feb-24 16:29N 47°44' W 003°22'0 0.0
2018-Feb-24 15:59N 47°44' W 003°22'0 0.0
2018-Feb-24 15:29N 47°44' W 003°22'0 0.0
2018-Feb-24 14:59N 47°44' W 003°22'0 0.0
2018-Feb-24 14:29N 47°44' W 003°22'0 0.0
2018-Feb-24 13:56N 47°44' W 003°22'0 0.0
2018-Feb-24 13:29N 47°44' W 003°22'0 0.0
2018-Feb-24 12:59N 47°44' W 003°22'0 0.0
2018-Feb-24 12:29N 47°44' W 003°22'0 0.0
2018-Feb-24 11:59N 47°44' W 003°22'0 0.0
2018-Feb-24 11:29N 47°44' W 003°22'0 0.0
2018-Feb-24 10:59N 47°44' W 003°22'0 0.0
2018-Feb-24 10:29N 47°44' W 003°22'0 0.0
2018-Feb-24 09:59N 47°44' W 003°22'0 0.0
2018-Feb-24 09:29N 47°44' W 003°22'0 0.0
2018-Feb-24 08:59N 47°44' W 003°22'0 0.0
2018-Feb-24 08:29N 47°44' W 003°22'0 0.0
2018-Feb-24 07:59N 47°44' W 003°22'0 0.0
2018-Feb-24 07:29N 47°44' W 003°22'0 0.0
2018-Feb-24 06:59N 47°44' W 003°22'0 0.0
2018-Feb-24 06:29N 47°44' W 003°22'0 0.0
2018-Feb-24 05:59N 47°44' W 003°22'0 0.0
2018-Feb-24 05:29N 47°44' W 003°22'0 0.0
2018-Feb-24 04:59N 47°44' W 003°22'0 0.0
2018-Feb-24 04:29N 47°44' W 003°22'0 0.0
2018-Feb-24 03:59N 47°44' W 003°22'0 0.0
2018-Feb-24 03:29N 47°44' W 003°22'0 0.0
2018-Feb-24 02:59N 47°44' W 003°22'0 0.0
2018-Feb-24 02:29N 47°44' W 003°22'0 0.4
2018-Feb-24 01:58N 47°44' W 003°22'2 4.8
2018-Feb-24 01:30N 47°42' W 003°23'4 8.0
2018-Feb-24 01:00N 47°40' W 003°28'1 0.1
2018-Feb-23 03:48N 47°40' W 003°27'3 9.1
2018-Feb-23 03:30N 47°42' W 003°23'2 4.4
2018-Feb-23 02:59N 47°44' W 003°22'0 0.3
2018-Feb-23 02:30N 47°44' W 003°22'0 0.0
2018-Feb-23 02:00N 47°44' W 003°22'3 5.5
2018-Feb-23 01:30N 47°41' W 003°24'4 8.0
2018-Feb-23 01:00N 47°40' W 003°29'4 8.1
2018-Feb-23 00:30N 47°37' W 003°34'5 8.7
2018-Feb-22 23:59N 47°33' W 003°37'9 0.2
2018-Feb-21 04:12N 47°40' W 003°28'2 8.4
2018-Feb-21 04:00N 47°41' W 003°25'4 7.3
2018-Feb-21 03:30N 47°44' W 003°22'0 0.1
2018-Feb-21 03:01N 47°44' W 003°22'0 0.2
2018-Feb-21 02:30N 47°44' W 003°22'3 5.2
2018-Feb-21 02:00N 47°41' W 003°22'4 8.7
2018-Feb-21 01:30N 47°37' W 003°24'4 8.0
2018-Feb-21 00:59N 47°34' W 003°28'2 4.5
2018-Feb-21 00:30N 47°33' W 003°31'2 3.5
2018-Feb-21 00:00N 47°32' W 003°30'2 3.5
2018-Feb-20 23:29N 47°30' W 003°30'2 3.5
2018-Feb-20 23:00N 47°28' W 003°30'2 3.4
2018-Feb-20 22:30N 47°27' W 003°31'  
Track history (hours):
 
Tides and Currents Weather Stations Pressure Air Temp Water Temp Dewpoint Dewpoint Depression Visibility Wind Speed Wind Dir Waves Ship Positions

F/V Santimax

Last reported at 2018-Feb-26 03:30 UTC. Time now 2018-Feb-26 03:48 UTC.
Position N 47°40' W 003°27'.

Length 15 m.

Type: Fishing. MMSI: 228122900.

Date/timePositionNaut miles runAvg speedWind from/ knotsBaromVisibWave heightAir tempDewpointWater temp
2018-Feb-26 03:30N 47°40' W 003°27'4 8.8
2018-Feb-26 03:00N 47°43' W 003°22'0 0.7
2018-Feb-26 02:29N 47°44' W 003°22'3 6.6
2018-Feb-26 01:58N 47°41' W 003°25'4 8.0
2018-Feb-26 01:30N 47°40' W 003°30'4 8.0
2018-Feb-26 00:59N 47°37' W 003°35'2 4.8
2018-Feb-26 00:30N 47°35' W 003°36'2 3.2
2018-Feb-26 00:00N 47°36' W 003°38'8 0.4
2018-Feb-25 03:49N 47°40' W 003°27'3 9.5
2018-Feb-25 03:30N 47°42' W 003°23'2 4.6
2018-Feb-25 02:59N 47°44' W 003°22'0 0.0
2018-Feb-25 02:29N 47°44' W 003°22'0 0.0
2018-Feb-25 01:59N 47°44' W 003°22'0 0.0
2018-Feb-25 01:29N 47°44' W 003°22'0 0.0
2018-Feb-25 00:59N 47°44' W 003°22'0 0.0
2018-Feb-25 00:29N 47°44' W 003°22'0 0.0
2018-Feb-24 23:59N 47°44' W 003°22'0 0.0
2018-Feb-24 23:29N 47°44' W 003°22'0 0.0
2018-Feb-24 22:59N 47°44' W 003°22'0 0.0
2018-Feb-24 22:29N 47°44' W 003°22'0 0.0
2018-Feb-24 21:59N 47°44' W 003°22'0 0.0
2018-Feb-24 21:29N 47°44' W 003°22'0 0.0
2018-Feb-24 20:59N 47°44' W 003°22'0 0.0
2018-Feb-24 20:29N 47°44' W 003°22'0 0.0
2018-Feb-24 19:59N 47°44' W 003°22'0 0.0
2018-Feb-24 19:29N 47°44' W 003°22'0 0.0
2018-Feb-24 18:59N 47°44' W 003°22'0 0.0
2018-Feb-24 18:29N 47°44' W 003°22'0 0.0
2018-Feb-24 17:56N 47°44' W 003°22'0 0.0
2018-Feb-24 17:29N 47°44' W 003°22'0 0.0
2018-Feb-24 16:59N 47°44' W 003°22'0 0.0
2018-Feb-24 16:29N 47°44' W 003°22'0 0.0
2018-Feb-24 15:59N 47°44' W 003°22'0 0.0
2018-Feb-24 15:29N 47°44' W 003°22'0 0.0
2018-Feb-24 14:59N 47°44' W 003°22'0 0.0
2018-Feb-24 14:29N 47°44' W 003°22'0 0.0
2018-Feb-24 13:56N 47°44' W 003°22'0 0.0
2018-Feb-24 13:29N 47°44' W 003°22'0 0.0
2018-Feb-24 12:59N 47°44' W 003°22'0 0.0
2018-Feb-24 12:29N 47°44' W 003°22'0 0.0
2018-Feb-24 11:59N 47°44' W 003°22'0 0.0
2018-Feb-24 11:29N 47°44' W 003°22'0 0.0
2018-Feb-24 10:59N 47°44' W 003°22'0 0.0
2018-Feb-24 10:29N 47°44' W 003°22'0 0.0
2018-Feb-24 09:59N 47°44' W 003°22'0 0.0
2018-Feb-24 09:29N 47°44' W 003°22'0 0.0
2018-Feb-24 08:59N 47°44' W 003°22'0 0.0
2018-Feb-24 08:29N 47°44' W 003°22'0 0.0
2018-Feb-24 07:59N 47°44' W 003°22'0 0.0
2018-Feb-24 07:29N 47°44' W 003°22'0 0.0
2018-Feb-24 06:59N 47°44' W 003°22'0 0.0
2018-Feb-24 06:29N 47°44' W 003°22'0 0.0
2018-Feb-24 05:59N 47°44' W 003°22'0 0.0
2018-Feb-24 05:29N 47°44' W 003°22'0 0.0
2018-Feb-24 04:59N 47°44' W 003°22'0 0.0
2018-Feb-24 04:29N 47°44' W 003°22'0 0.0
2018-Feb-24 03:59N 47°44' W 003°22'0 0.0
2018-Feb-24 03:29N 47°44' W 003°22'0 0.0
2018-Feb-24 02:59N 47°44' W 003°22'0 0.0
2018-Feb-24 02:29N 47°44' W 003°22'0 0.4
2018-Feb-24 01:58N 47°44' W 003°22'2 4.8
2018-Feb-24 01:30N 47°42' W 003°23'4 8.0
2018-Feb-24 01:00N 47°40' W 003°28'1 0.1
2018-Feb-23 03:48N 47°40' W 003°27'3 9.1
2018-Feb-23 03:30N 47°42' W 003°23'2 4.4
2018-Feb-23 02:59N 47°44' W 003°22'0 0.3
2018-Feb-23 02:30N 47°44' W 003°22'0 0.0
2018-Feb-23 02:00N 47°44' W 003°22'3 5.5
2018-Feb-23 01:30N 47°41' W 003°24'4 8.0
2018-Feb-23 01:00N 47°40' W 003°29'4 8.1
2018-Feb-23 00:30N 47°37' W 003°34'5 8.7
2018-Feb-22 23:59N 47°33' W 003°37'9 0.2
2018-Feb-21 04:12N 47°40' W 003°28'2 8.4
2018-Feb-21 04:00N 47°41' W 003°25'4 7.3
2018-Feb-21 03:30N 47°44' W 003°22'0 0.1
2018-Feb-21 03:01N 47°44' W 003°22'0 0.2
2018-Feb-21 02:30N 47°44' W 003°22'3 5.2
2018-Feb-21 02:00N 47°41' W 003°22'4 8.7
2018-Feb-21 01:30N 47°37' W 003°24'4 8.0
2018-Feb-21 00:59N 47°34' W 003°28'2 4.5
2018-Feb-21 00:30N 47°33' W 003°31'2 3.5
2018-Feb-21 00:00N 47°32' W 003°30'2 3.5
2018-Feb-20 23:29N 47°30' W 003°30'2 3.5
2018-Feb-20 23:00N 47°28' W 003°30'2 3.4
2018-Feb-20 22:30N 47°27' W 003°31'  

Dump ship's entire track history